createdAt,value
2022-08-04T00:00:45.866Z,23.17
2022-08-04T00:03:17.053Z,22.94
2022-08-04T00:05:55.186Z,23.08
2022-08-04T00:08:42.845Z,22.92
2022-08-04T00:11:15.243Z,22.83
2022-08-04T00:14:08.119Z,22.73
2022-08-04T00:16:38.561Z,22.69
2022-08-04T00:19:18.507Z,22.79
2022-08-04T00:21:56.692Z,22.84
2022-08-04T00:24:25.438Z,22.87
2022-08-04T00:26:56.144Z,22.53
2022-08-04T00:29:25.591Z,22.66
2022-08-04T00:31:57.383Z,22.53
2022-08-04T00:34:28.622Z,22.80
2022-08-04T00:36:58.362Z,22.88
2022-08-04T00:39:27.249Z,22.52
2022-08-04T00:42:23.970Z,22.52
2022-08-04T00:45:13.756Z,22.57
2022-08-04T00:48:04.469Z,22.62
2022-08-04T00:50:33.795Z,22.53
2022-08-04T00:53:09.824Z,22.34
2022-08-04T00:56:11.273Z,22.30
2022-08-04T00:59:03.906Z,22.04
2022-08-04T01:01:46.436Z,22.14
2022-08-04T01:04:22.442Z,21.55
2022-08-04T01:07:31.481Z,21.78
2022-08-04T01:10:31.458Z,21.78
2022-08-04T01:13:18.214Z,21.83
2022-08-04T01:16:11.354Z,21.56
2022-08-04T01:18:51.581Z,21.67
2022-08-04T01:21:47.909Z,21.75
2022-08-04T01:24:30.894Z,21.56
2022-08-04T01:27:26.998Z,21.78
2022-08-04T01:29:59.891Z,21.81
2022-08-04T01:33:03.905Z,21.72
2022-08-04T01:35:52.985Z,21.74
2022-08-04T01:38:28.827Z,21.71
2022-08-04T01:41:04.154Z,21.66
2022-08-04T01:43:34.140Z,21.73
2022-08-04T01:46:04.246Z,21.81
2022-08-04T01:48:32.332Z,21.88
2022-08-04T01:51:06.709Z,21.93
2022-08-04T01:53:37.524Z,21.88
2022-08-04T01:56:08.219Z,21.79
2022-08-04T01:58:38.026Z,21.71
2022-08-04T02:01:11.349Z,21.85
2022-08-04T02:04:18.812Z,21.77
2022-08-04T02:06:52.885Z,21.68
2022-08-04T02:09:32.202Z,21.70
2022-08-04T02:12:24.885Z,21.59
2022-08-04T02:15:19.631Z,21.56
2022-08-04T02:22:17.782Z,21.05
2022-08-04T02:24:50.171Z,21.52
2022-08-04T02:27:23.705Z,21.36
2022-08-04T02:30:05.211Z,21.25
2022-08-04T02:32:39.771Z,21.44
2022-08-04T02:35:15.112Z,21.49
2022-08-04T02:37:48.299Z,21.75
2022-08-04T02:40:20.921Z,21.47
2022-08-04T02:43:04.420Z,21.42
2022-08-04T02:45:37.823Z,21.52
2022-08-04T02:48:25.230Z,21.31
2022-08-04T02:50:56.388Z,21.20
2022-08-04T02:53:34.807Z,21.49
2022-08-04T02:56:03.909Z,21.35
2022-08-04T02:58:35.410Z,21.30
2022-08-04T03:01:04.510Z,21.60
2022-08-04T03:03:41.455Z,21.45
2022-08-04T03:06:10.939Z,21.65
2022-08-04T03:08:57.038Z,21.53
2022-08-04T03:11:24.956Z,21.54
2022-08-04T03:14:16.924Z,21.66
2022-08-04T03:17:03.805Z,21.68
2022-08-04T03:20:07.719Z,21.69
2022-08-04T03:23:12.009Z,21.76
2022-08-04T03:26:11.890Z,21.28
2022-08-04T03:28:45.857Z,21.45
2022-08-04T03:31:54.192Z,21.54
2022-08-04T03:34:34.833Z,21.37
2022-08-04T03:37:12.371Z,21.65
2022-08-04T03:40:10.708Z,21.34
2022-08-04T03:43:57.298Z,21.27
2022-08-04T03:46:23.417Z,21.61
2022-08-04T03:49:25.692Z,21.72
2022-08-04T03:52:51.739Z,21.55
2022-08-04T03:55:41.032Z,21.92
2022-08-04T03:58:41.513Z,21.65
2022-08-04T04:01:14.181Z,21.58
2022-08-04T04:04:08.810Z,21.70
2022-08-04T04:07:07.735Z,22.18
2022-08-04T04:10:06.433Z,22.48
2022-08-04T04:12:53.862Z,22.22
2022-08-04T04:15:37.999Z,22.46
2022-08-04T04:18:16.578Z,22.53
2022-08-04T04:20:59.230Z,22.68
2022-08-04T04:23:27.225Z,22.89
2022-08-04T04:26:26.862Z,22.92
2022-08-04T04:29:28.878Z,22.97
2022-08-04T04:32:05.101Z,22.92
2022-08-04T04:34:51.076Z,22.74
2022-08-04T04:37:48.761Z,23.04
2022-08-04T04:40:36.097Z,23.28
2022-08-04T04:43:50.340Z,23.48
2022-08-04T04:46:40.203Z,23.65
2022-08-04T04:49:30.778Z,23.89
2022-08-04T04:52:06.827Z,24.04
2022-08-04T04:55:10.631Z,23.74
2022-08-04T04:57:53.386Z,23.80
2022-08-04T05:00:27.089Z,24.04
2022-08-04T05:03:14.972Z,24.24
2022-08-04T05:05:53.643Z,24.49
2022-08-04T05:08:41.119Z,24.54
2022-08-04T05:11:49.106Z,24.82
2022-08-04T05:14:40.031Z,24.81
2022-08-04T05:17:26.654Z,25.19
2022-08-04T05:20:04.597Z,25.43
2022-08-04T05:22:40.233Z,25.82
2022-08-04T05:25:18.619Z,25.77
2022-08-04T05:28:09.953Z,25.69
2022-08-04T05:30:48.652Z,25.90
2022-08-04T05:33:23.151Z,25.75
2022-08-04T05:36:20.868Z,26.20
2022-08-04T05:38:52.068Z,26.34
2022-08-04T05:41:23.085Z,26.47
2022-08-04T05:44:14.074Z,26.44
2022-08-04T05:46:54.240Z,26.61
2022-08-04T05:49:28.194Z,26.61
2022-08-04T05:52:01.128Z,26.77
2022-08-04T05:54:33.666Z,26.52
2022-08-04T05:57:06.658Z,26.53
2022-08-04T05:59:38.028Z,26.93
2022-08-04T06:02:09.118Z,26.79
2022-08-04T06:04:43.578Z,27.06
2022-08-04T06:07:14.301Z,26.90
2022-08-04T06:09:46.112Z,26.90
2022-08-04T06:12:38.960Z,27.26
2022-08-04T06:15:09.288Z,27.40
2022-08-04T06:18:32.894Z,27.53
2022-08-04T06:20:34.666Z,27.37
2022-08-04T06:23:08.203Z,27.76
2022-08-04T06:25:51.263Z,27.61
2022-08-04T06:28:28.041Z,27.62
2022-08-04T06:32:28.333Z,27.65
2022-08-04T06:33:55.423Z,27.50
2022-08-04T06:36:24.889Z,27.79
2022-08-04T06:38:58.328Z,27.78
2022-08-04T06:41:29.577Z,27.95
2022-08-04T06:44:05.001Z,27.75
2022-08-04T06:46:37.752Z,28.11
2022-08-04T06:49:08.384Z,28.05
2022-08-04T06:51:46.705Z,28.22
2022-08-04T06:54:16.686Z,28.43
2022-08-04T06:56:46.186Z,28.38
2022-08-04T06:59:16.297Z,28.68
2022-08-04T07:04:26.192Z,28.43
2022-08-04T07:07:04.967Z,28.41
2022-08-04T07:12:13.700Z,28.58
2022-08-04T07:14:51.494Z,28.90
2022-08-04T07:17:21.583Z,29.02
2022-08-04T07:19:50.516Z,29.29
2022-08-04T07:22:25.470Z,29.50
2022-08-04T07:24:57.317Z,29.39
2022-08-04T07:27:47.861Z,29.33
2022-08-04T07:30:24.639Z,29.06
2022-08-04T07:32:55.155Z,29.25
2022-08-04T07:36:05.399Z,29.42
2022-08-04T07:38:13.936Z,29.47
2022-08-04T07:40:47.035Z,29.91
2022-08-04T07:43:17.959Z,29.97
2022-08-04T07:45:46.468Z,30.27
2022-08-04T07:48:15.768Z,30.10
2022-08-04T07:50:48.997Z,30.17
2022-08-04T07:53:54.600Z,30.09
2022-08-04T07:56:07.884Z,29.93
2022-08-04T07:58:35.979Z,30.38
2022-08-04T08:01:06.228Z,30.71
2022-08-04T08:03:39.076Z,30.51
2022-08-04T08:06:18.164Z,30.53
2022-08-04T08:09:14.569Z,30.72
2022-08-04T08:12:37.643Z,30.70
2022-08-04T08:14:37.309Z,30.91
2022-08-04T08:17:09.282Z,31.24
2022-08-04T08:19:41.087Z,31.45
2022-08-04T08:22:12.317Z,31.21
2022-08-04T08:24:42.419Z,31.07
2022-08-04T08:27:11.072Z,31.21
2022-08-04T08:29:40.043Z,31.25
2022-08-04T08:32:10.803Z,31.30
2022-08-04T08:34:46.725Z,31.48
2022-08-04T08:37:17.958Z,31.83
2022-08-04T08:39:58.437Z,32.10
2022-08-04T08:42:47.961Z,32.37
2022-08-04T08:45:23.645Z,32.61
2022-08-04T08:48:17.062Z,32.22
2022-08-04T08:51:13.878Z,32.30
2022-08-04T08:53:54.195Z,32.13
2022-08-04T08:56:53.157Z,32.69
2022-08-04T08:59:54.916Z,32.47
2022-08-04T09:03:04.234Z,33.15
2022-08-04T09:06:17.402Z,33.12
2022-08-04T09:09:01.707Z,33.18
2022-08-04T09:11:38.633Z,33.11
2022-08-04T09:14:12.070Z,33.36
2022-08-04T09:16:48.098Z,33.42
2022-08-04T09:19:39.098Z,33.75
2022-08-04T09:22:28.544Z,33.68
2022-08-04T09:25:30.988Z,33.49
2022-08-04T09:28:37.205Z,33.65
2022-08-04T09:31:53.020Z,33.64
2022-08-04T09:35:03.722Z,34.15
2022-08-04T09:37:55.976Z,34.27
2022-08-04T09:40:53.212Z,33.53
2022-08-04T09:44:51.398Z,34.16
2022-08-04T09:47:12.181Z,34.63
2022-08-04T09:49:49.177Z,34.40
2022-08-04T09:52:28.169Z,34.46
2022-08-04T09:55:09.985Z,34.58
2022-08-04T09:57:56.529Z,34.66
2022-08-04T10:00:42.006Z,34.62
2022-08-04T10:03:19.999Z,34.62
2022-08-04T10:06:20.326Z,35.19
2022-08-04T10:12:19.084Z,34.99
2022-08-04T10:14:55.128Z,35.21
2022-08-04T10:17:43.525Z,35.45
2022-08-04T10:20:36.581Z,35.36
2022-08-04T10:23:18.339Z,34.81
2022-08-04T10:26:08.469Z,34.85
2022-08-04T10:28:46.001Z,34.93
2022-08-04T10:31:27.199Z,34.79
2022-08-04T10:34:03.986Z,35.54
2022-08-04T10:36:41.807Z,35.80
2022-08-04T10:39:43.233Z,36.13
2022-08-04T10:42:15.555Z,36.01
2022-08-04T10:48:03.309Z,36.38
2022-08-04T10:50:40.902Z,36.75
2022-08-04T10:53:19.982Z,36.56
2022-08-04T10:56:07.231Z,36.66
2022-08-04T10:58:48.027Z,36.46
2022-08-04T11:02:00.794Z,36.45
2022-08-04T11:04:27.193Z,36.01
2022-08-04T11:07:02.935Z,36.89
2022-08-04T11:09:32.970Z,36.60
2022-08-04T11:12:21.991Z,36.73
2022-08-04T11:18:24.313Z,36.40
2022-08-04T11:21:03.205Z,36.38
2022-08-04T11:23:42.207Z,36.25
2022-08-04T11:26:45.682Z,36.41
2022-08-04T11:29:27.094Z,36.06
2022-08-04T11:32:02.060Z,36.27
2022-08-04T11:34:33.410Z,36.02
2022-08-04T11:37:14.371Z,36.19
2022-08-04T11:40:08.370Z,36.27
2022-08-04T11:42:40.114Z,36.67
2022-08-04T11:45:17.464Z,36.82
2022-08-04T11:48:08.075Z,36.76
2022-08-04T11:50:44.467Z,36.63
2022-08-04T11:53:20.186Z,37.16
2022-08-04T11:58:29.248Z,37.65
2022-08-04T12:01:27.770Z,37.44
2022-08-04T12:07:30.414Z,37.65
2022-08-04T12:10:47.263Z,37.57
2022-08-04T12:13:37.043Z,37.48
2022-08-04T12:16:22.240Z,37.57
2022-08-04T12:19:10.023Z,36.98
2022-08-04T12:21:55.976Z,37.36
2022-08-04T12:24:40.015Z,37.85
2022-08-04T12:27:32.165Z,37.88
2022-08-04T12:30:59.535Z,38.13
2022-08-04T12:33:02.017Z,38.31
2022-08-04T12:36:11.148Z,38.38
2022-08-04T12:41:27.023Z,38.23
2022-08-04T12:43:56.117Z,38.27
2022-08-04T12:46:28.204Z,37.79
2022-08-04T12:49:02.783Z,37.73
2022-08-04T12:52:07.118Z,37.72
2022-08-04T12:54:34.405Z,36.94
2022-08-04T12:59:44.815Z,36.95
2022-08-04T13:02:19.166Z,36.80
2022-08-04T13:04:51.378Z,37.24
2022-08-04T13:07:24.497Z,37.92
2022-08-04T13:09:54.659Z,37.81
2022-08-04T13:12:31.975Z,37.92
2022-08-04T13:15:18.030Z,37.23
2022-08-04T13:18:02.099Z,37.74
2022-08-04T13:20:36.884Z,38.03
2022-08-04T13:23:12.896Z,38.23
2022-08-04T13:26:44.450Z,37.68
2022-08-04T13:28:34.730Z,37.79
2022-08-04T13:31:08.333Z,38.18
2022-08-04T13:33:44.103Z,37.54
2022-08-04T13:36:20.277Z,37.38
2022-08-04T13:38:54.640Z,37.34
2022-08-04T13:41:27.654Z,37.28
2022-08-04T13:44:18.507Z,36.71
2022-08-04T13:46:51.337Z,36.72
2022-08-04T13:49:42.736Z,36.80
2022-08-04T13:52:14.056Z,36.72
2022-08-04T13:57:35.195Z,36.90
2022-08-04T14:00:12.101Z,36.68
2022-08-04T14:02:47.119Z,36.75
2022-08-04T14:05:27.455Z,36.90
2022-08-04T14:08:05.158Z,36.71
2022-08-04T14:10:37.151Z,36.31
2022-08-04T14:13:06.682Z,36.33
2022-08-04T14:15:54.888Z,36.63
2022-08-04T14:18:35.131Z,36.51
2022-08-04T14:21:10.074Z,36.84
2022-08-04T14:23:48.041Z,36.83
2022-08-04T14:26:32.391Z,36.43
2022-08-04T14:32:03.181Z,36.25
2022-08-04T14:37:18.174Z,36.51
2022-08-04T14:40:18.171Z,36.00
2022-08-04T14:42:53.973Z,36.09
2022-08-04T14:45:35.504Z,35.62
2022-08-04T14:48:11.846Z,35.98
2022-08-04T14:50:50.720Z,36.42
2022-08-04T14:53:29.475Z,35.82
2022-08-04T14:56:01.235Z,35.72
2022-08-04T14:58:39.288Z,36.06
2022-08-04T15:01:12.922Z,35.73
2022-08-04T15:03:47.986Z,35.41
2022-08-04T15:06:27.402Z,35.57
2022-08-04T15:08:58.821Z,35.58
2022-08-04T15:11:34.048Z,35.14
2022-08-04T15:14:09.066Z,35.17
2022-08-04T15:16:58.665Z,35.62
2022-08-04T15:19:28.311Z,35.27
2022-08-04T15:21:58.121Z,35.29
2022-08-04T15:24:35.076Z,35.48
2022-08-04T15:27:04.201Z,35.56
2022-08-04T15:29:59.696Z,35.22
2022-08-04T15:32:33.187Z,35.68
2022-08-04T15:35:20.881Z,35.86
2022-08-04T15:37:58.357Z,35.37
2022-08-04T15:40:52.147Z,35.62
2022-08-04T15:43:45.229Z,35.60
2022-08-04T15:46:44.079Z,35.54
2022-08-04T15:49:22.449Z,35.17
2022-08-04T15:52:26.289Z,35.50
2022-08-04T15:55:39.115Z,35.31
2022-08-04T15:58:15.170Z,35.09
2022-08-04T16:00:55.094Z,34.97
2022-08-04T16:04:00.366Z,35.29
2022-08-04T16:06:30.779Z,35.33
2022-08-04T16:09:05.520Z,35.26
2022-08-04T16:11:38.130Z,35.24
2022-08-04T16:14:07.713Z,34.41
2022-08-04T16:16:37.158Z,34.78
2022-08-04T16:19:19.069Z,34.99
2022-08-04T16:21:51.407Z,34.95
2022-08-04T16:24:26.576Z,34.31
2022-08-04T16:27:02.114Z,34.87
2022-08-04T16:29:40.540Z,35.03
2022-08-04T16:32:14.446Z,34.68
2022-08-04T16:35:00.340Z,34.68
2022-08-04T16:37:38.551Z,34.73
2022-08-04T16:40:37.732Z,34.67
2022-08-04T16:43:22.153Z,34.61
2022-08-04T16:46:02.131Z,34.60
2022-08-04T16:48:30.747Z,34.69
2022-08-04T16:51:15.678Z,34.78
2022-08-04T16:54:04.999Z,34.72
2022-08-04T16:56:42.105Z,34.71
2022-08-04T16:59:13.174Z,34.79
2022-08-04T17:01:52.540Z,34.64
2022-08-04T17:04:33.667Z,34.49
2022-08-04T17:07:07.026Z,34.46
2022-08-04T17:09:50.450Z,34.58
2022-08-04T17:12:19.038Z,34.28
2022-08-04T17:14:54.392Z,34.20
2022-08-04T17:17:25.658Z,34.20
2022-08-04T17:20:17.914Z,34.21
2022-08-04T17:22:52.114Z,34.26
2022-08-04T17:25:21.195Z,34.29
2022-08-04T17:28:27.523Z,34.24
2022-08-04T17:31:03.419Z,34.09
2022-08-04T17:33:55.032Z,34.09
2022-08-04T17:41:49.640Z,34.05
2022-08-04T17:44:41.380Z,34.06
2022-08-04T17:47:20.492Z,34.05
2022-08-04T17:50:08.158Z,34.04
2022-08-04T17:53:11.263Z,33.85
2022-08-04T17:55:47.250Z,33.70
2022-08-04T17:58:26.853Z,33.55
2022-08-04T18:01:24.674Z,33.52
2022-08-04T18:03:58.240Z,33.41
2022-08-04T18:12:30.286Z,33.21
2022-08-04T18:15:05.812Z,33.06
2022-08-04T18:18:21.097Z,32.90
2022-08-04T18:20:27.840Z,32.74
2022-08-04T18:22:59.364Z,32.62
2022-08-04T18:25:50.352Z,32.49
2022-08-04T18:28:20.857Z,32.25
2022-08-04T18:31:03.515Z,32.25
2022-08-04T18:33:41.614Z,32.06
2022-08-04T18:36:37.091Z,32.00
2022-08-04T18:41:51.618Z,31.65
2022-08-04T18:44:32.167Z,31.51
2022-08-04T18:47:22.381Z,31.43
2022-08-04T18:50:40.215Z,31.27
2022-08-04T18:52:48.394Z,31.14
2022-08-04T18:55:55.338Z,30.99
2022-08-04T19:01:03.189Z,30.76
2022-08-04T19:03:58.737Z,30.66
2022-08-04T19:06:30.753Z,30.52
2022-08-04T19:09:01.410Z,30.44
2022-08-04T19:11:54.704Z,30.37
2022-08-04T19:14:26.245Z,30.09
2022-08-04T19:16:56.480Z,29.82
2022-08-04T19:19:47.962Z,29.94
2022-08-04T19:22:36.150Z,29.83
2022-08-04T19:26:02.300Z,29.64
2022-08-04T19:28:22.199Z,29.54
2022-08-04T19:30:57.284Z,29.39
2022-08-04T19:36:08.558Z,29.06
2022-08-04T19:38:58.159Z,28.89
2022-08-04T19:44:29.935Z,28.87
2022-08-04T19:50:03.305Z,28.64
2022-08-04T19:52:34.186Z,28.55
2022-08-04T19:55:09.779Z,28.56
2022-08-04T19:57:46.181Z,28.41
2022-08-04T20:00:33.781Z,28.35
2022-08-04T20:03:04.053Z,28.31
2022-08-04T20:05:55.227Z,28.30
2022-08-04T20:08:30.537Z,28.20
2022-08-04T20:11:04.202Z,28.17
2022-08-04T20:13:41.066Z,28.11
2022-08-04T20:16:29.282Z,27.99
2022-08-04T20:19:04.622Z,27.94
2022-08-04T20:21:54.822Z,27.84
2022-08-04T20:29:59.358Z,27.27
2022-08-04T20:32:34.247Z,27.22
2022-08-04T20:35:08.386Z,27.19
2022-08-04T20:38:00.374Z,27.19
2022-08-04T20:40:31.142Z,27.24
2022-08-04T20:43:01.280Z,27.12
2022-08-04T20:45:55.721Z,27.10
2022-08-04T20:48:26.176Z,27.09
2022-08-04T20:50:56.095Z,26.95
2022-08-04T20:53:32.532Z,26.97
2022-08-04T20:56:30.572Z,26.87
2022-08-04T20:59:01.685Z,26.65
2022-08-04T21:01:45.410Z,26.58
2022-08-04T21:04:45.280Z,26.69
2022-08-04T21:07:16.743Z,26.62
2022-08-04T21:09:50.674Z,26.38
2022-08-04T21:12:27.186Z,26.40
2022-08-04T21:15:00.243Z,26.42
2022-08-04T21:17:58.320Z,26.37
2022-08-04T21:20:27.790Z,26.29
2022-08-04T21:23:01.944Z,26.10
2022-08-04T21:25:33.095Z,26.07
2022-08-04T21:28:20.481Z,25.96
2022-08-04T21:30:55.066Z,25.77
2022-08-04T21:33:50.490Z,25.79
2022-08-04T21:36:19.924Z,25.87
2022-08-04T21:38:51.500Z,25.78
2022-08-04T21:41:24.859Z,25.79
2022-08-04T21:43:56.059Z,25.83
2022-08-04T21:46:24.438Z,25.84
2022-08-04T21:48:52.198Z,25.77
2022-08-04T21:52:00.729Z,25.76
2022-08-04T21:54:16.896Z,25.49
2022-08-04T21:56:50.703Z,25.18
2022-08-04T21:59:23.816Z,25.43
2022-08-04T22:02:00.834Z,25.51
2022-08-04T22:04:30.825Z,25.44
2022-08-04T22:07:03.090Z,25.28
2022-08-04T22:09:41.298Z,25.22
2022-08-04T22:12:11.743Z,25.22
2022-08-04T22:14:40.359Z,25.11
2022-08-04T22:17:13.806Z,25.01
2022-08-04T22:19:55.436Z,25.03
2022-08-04T22:22:29.223Z,24.97
2022-08-04T22:25:01.918Z,24.97
2022-08-04T22:28:01.210Z,24.95
2022-08-04T22:30:37.022Z,25.00
2022-08-04T22:33:08.002Z,25.04
2022-08-04T22:35:44.037Z,24.98
2022-08-04T22:38:31.743Z,25.01
2022-08-04T22:41:11.185Z,24.76
2022-08-04T22:43:39.933Z,24.51
2022-08-04T22:46:12.214Z,24.58
2022-08-04T22:48:43.601Z,24.69
2022-08-04T22:51:14.143Z,24.65
2022-08-04T22:53:48.897Z,24.52
2022-08-04T22:56:37.232Z,24.49
2022-08-04T22:59:10.882Z,24.51
2022-08-04T23:02:00.120Z,24.61
2022-08-04T23:04:29.177Z,24.66
2022-08-04T23:06:57.525Z,24.40
2022-08-04T23:09:48.828Z,24.30
2022-08-04T23:12:26.229Z,24.49
2022-08-04T23:14:56.628Z,24.48
2022-08-04T23:17:27.763Z,24.85
2022-08-04T23:19:59.218Z,24.44
2022-08-04T23:22:41.965Z,24.40
2022-08-04T23:25:16.112Z,24.09
2022-08-04T23:27:51.639Z,24.10
2022-08-04T23:30:29.767Z,24.06
2022-08-04T23:32:58.835Z,24.08
2022-08-04T23:35:27.587Z,24.13
2022-08-04T23:37:59.879Z,24.26
2022-08-04T23:40:50.096Z,24.11
2022-08-04T23:43:19.229Z,24.17
2022-08-04T23:46:08.272Z,24.24
2022-08-04T23:48:37.051Z,23.99
2022-08-04T23:51:14.028Z,24.06
2022-08-04T23:54:03.469Z,24.23
2022-08-04T23:56:34.729Z,24.10
2022-08-04T23:59:04.519Z,24.06
